sensor_id;sensor_type;location;lat;lon;timestamp;P1;durP1;ratioP1;P2;durP2;ratioP2
5153;SDS011;2595;53.584;10.084;2022-08-26T00:01:21;10.63;;;6.50;;
5153;SDS011;2595;53.584;10.084;2022-08-26T00:03:47;6.70;;;6.03;;
5153;SDS011;2595;53.584;10.084;2022-08-26T00:06:12;6.67;;;5.70;;
5153;SDS011;2595;53.584;10.084;2022-08-26T00:08:38;16.53;;;6.10;;
5153;SDS011;2595;53.584;10.084;2022-08-26T00:11:05;6.93;;;6.23;;
5153;SDS011;2595;53.584;10.084;2022-08-26T00:13:32;6.77;;;6.00;;
5153;SDS011;2595;53.584;10.084;2022-08-26T00:15:58;8.10;;;6.80;;
5153;SDS011;2595;53.584;10.084;2022-08-26T00:18:24;9.73;;;6.00;;
5153;SDS011;2595;53.584;10.084;2022-08-26T00:20:51;9.63;;;6.13;;
5153;SDS011;2595;53.584;10.084;2022-08-26T00:23:17;8.13;;;6.03;;
5153;SDS011;2595;53.584;10.084;2022-08-26T00:25:44;7.73;;;6.37;;
5153;SDS011;2595;53.584;10.084;2022-08-26T00:28:10;8.50;;;6.20;;
5153;SDS011;2595;53.584;10.084;2022-08-26T00:30:36;11.10;;;6.87;;
5153;SDS011;2595;53.584;10.084;2022-08-26T00:33:02;8.80;;;6.47;;
5153;SDS011;2595;53.584;10.084;2022-08-26T00:35:30;8.70;;;5.83;;
5153;SDS011;2595;53.584;10.084;2022-08-26T00:37:56;7.00;;;6.40;;
5153;SDS011;2595;53.584;10.084;2022-08-26T00:40:28;6.10;;;5.70;;
5153;SDS011;2595;53.584;10.084;2022-08-26T00:43:01;7.27;;;6.70;;
5153;SDS011;2595;53.584;10.084;2022-08-26T00:45:33;6.07;;;5.47;;
5153;SDS011;2595;53.584;10.084;2022-08-26T00:48:05;8.30;;;7.70;;
5153;SDS011;2595;53.584;10.084;2022-08-26T00:50:33;6.27;;;5.77;;
5153;SDS011;2595;53.584;10.084;2022-08-26T00:53:04;11.10;;;5.53;;
5153;SDS011;2595;53.584;10.084;2022-08-26T00:55:45;5.60;;;5.27;;
5153;SDS011;2595;53.584;10.084;2022-08-26T00:58:15;7.03;;;6.43;;
5153;SDS011;2595;53.584;10.084;2022-08-26T01:00:41;7.90;;;6.87;;
5153;SDS011;2595;53.584;10.084;2022-08-26T01:03:07;6.33;;;5.83;;
5153;SDS011;2595;53.584;10.084;2022-08-26T01:05:34;9.00;;;6.77;;
5153;SDS011;2595;53.584;10.084;2022-08-26T01:08:03;6.33;;;5.83;;
5153;SDS011;2595;53.584;10.084;2022-08-26T01:10:29;10.57;;;7.17;;
5153;SDS011;2595;53.584;10.084;2022-08-26T01:12:57;8.23;;;7.53;;
5153;SDS011;2595;53.584;10.084;2022-08-26T01:15:27;6.87;;;5.73;;
5153;SDS011;2595;53.584;10.084;2022-08-26T01:17:56;7.10;;;6.50;;
5153;SDS011;2595;53.584;10.084;2022-08-26T01:23:15;9.00;;;6.10;;
5153;SDS011;2595;53.584;10.084;2022-08-26T01:25:43;8.47;;;5.97;;
5153;SDS011;2595;53.584;10.084;2022-08-26T01:28:14;8.87;;;5.77;;
5153;SDS011;2595;53.584;10.084;2022-08-26T01:30:45;8.40;;;7.37;;
5153;SDS011;2595;53.584;10.084;2022-08-26T01:33:14;7.37;;;6.67;;
5153;SDS011;2595;53.584;10.084;2022-08-26T01:35:43;7.47;;;6.80;;
5153;SDS011;2595;53.584;10.084;2022-08-26T01:38:09;7.87;;;5.60;;
5153;SDS011;2595;53.584;10.084;2022-08-26T01:40:36;8.20;;;5.70;;
5153;SDS011;2595;53.584;10.084;2022-08-26T01:43:05;8.13;;;6.40;;
5153;SDS011;2595;53.584;10.084;2022-08-26T01:45:33;8.10;;;6.50;;
5153;SDS011;2595;53.584;10.084;2022-08-26T01:48:01;8.10;;;6.70;;
5153;SDS011;2595;53.584;10.084;2022-08-26T01:50:33;6.30;;;5.80;;
5153;SDS011;2595;53.584;10.084;2022-08-26T01:53:02;7.43;;;6.57;;
5153;SDS011;2595;53.584;10.084;2022-08-26T01:55:33;8.03;;;7.43;;
5153;SDS011;2595;53.584;10.084;2022-08-26T01:58:05;8.20;;;6.63;;
5153;SDS011;2595;53.584;10.084;2022-08-26T02:00:34;7.00;;;6.30;;
5153;SDS011;2595;53.584;10.084;2022-08-26T02:03:01;7.30;;;6.60;;
5153;SDS011;2595;53.584;10.084;2022-08-26T02:05:53;6.10;;;5.70;;
5153;SDS011;2595;53.584;10.084;2022-08-26T02:11:07;6.60;;;6.10;;
5153;SDS011;2595;53.584;10.084;2022-08-26T02:13:33;6.77;;;6.17;;
5153;SDS011;2595;53.584;10.084;2022-08-26T02:16:04;8.23;;;6.07;;
5153;SDS011;2595;53.584;10.084;2022-08-26T02:18:32;10.27;;;6.23;;
5153;SDS011;2595;53.584;10.084;2022-08-26T02:21:01;7.93;;;6.83;;
5153;SDS011;2595;53.584;10.084;2022-08-26T02:23:27;6.73;;;6.17;;
5153;SDS011;2595;53.584;10.084;2022-08-26T02:25:59;8.17;;;7.47;;
5153;SDS011;2595;53.584;10.084;2022-08-26T02:28:30;7.50;;;6.50;;
5153;SDS011;2595;53.584;10.084;2022-08-26T02:31:00;11.90;;;7.17;;
5153;SDS011;2595;53.584;10.084;2022-08-26T02:33:29;7.87;;;7.07;;
5153;SDS011;2595;53.584;10.084;2022-08-26T02:35:54;6.40;;;5.90;;
5153;SDS011;2595;53.584;10.084;2022-08-26T02:38:20;6.80;;;6.20;;
5153;SDS011;2595;53.584;10.084;2022-08-26T02:40:46;6.30;;;5.80;;
5153;SDS011;2595;53.584;10.084;2022-08-26T02:43:11;10.33;;;6.67;;
5153;SDS011;2595;53.584;10.084;2022-08-26T02:45:37;12.60;;;7.10;;
5153;SDS011;2595;53.584;10.084;2022-08-26T02:48:09;6.90;;;6.40;;
5153;SDS011;2595;53.584;10.084;2022-08-26T02:50:40;8.53;;;6.57;;
5153;SDS011;2595;53.584;10.084;2022-08-26T02:53:06;14.57;;;7.73;;
5153;SDS011;2595;53.584;10.084;2022-08-26T02:55:33;7.73;;;6.50;;
5153;SDS011;2595;53.584;10.084;2022-08-26T02:57:59;15.13;;;7.30;;
5153;SDS011;2595;53.584;10.084;2022-08-26T03:00:25;6.97;;;6.57;;
5153;SDS011;2595;53.584;10.084;2022-08-26T03:02:51;9.70;;;6.93;;
5153;SDS011;2595;53.584;10.084;2022-08-26T03:05:17;9.50;;;7.80;;
5153;SDS011;2595;53.584;10.084;2022-08-26T03:07:44;7.80;;;7.40;;
5153;SDS011;2595;53.584;10.084;2022-08-26T03:10:10;7.80;;;7.07;;
5153;SDS011;2595;53.584;10.084;2022-08-26T03:12:40;8.23;;;7.13;;
5153;SDS011;2595;53.584;10.084;2022-08-26T03:15:07;7.63;;;6.93;;
5153;SDS011;2595;53.584;10.084;2022-08-26T03:17:33;12.13;;;7.30;;
5153;SDS011;2595;53.584;10.084;2022-08-26T03:20:00;10.03;;;7.60;;
5153;SDS011;2595;53.584;10.084;2022-08-26T03:22:26;11.57;;;6.27;;
5153;SDS011;2595;53.584;10.084;2022-08-26T03:24:51;11.30;;;7.97;;
5153;SDS011;2595;53.584;10.084;2022-08-26T03:27:17;8.87;;;6.73;;
5153;SDS011;2595;53.584;10.084;2022-08-26T03:29:43;7.87;;;7.07;;
5153;SDS011;2595;53.584;10.084;2022-08-26T03:32:27;9.33;;;8.53;;
5153;SDS011;2595;53.584;10.084;2022-08-26T03:34:53;7.60;;;7.00;;
5153;SDS011;2595;53.584;10.084;2022-08-26T03:37:20;7.70;;;7.10;;
5153;SDS011;2595;53.584;10.084;2022-08-26T03:39:46;7.60;;;7.00;;
5153;SDS011;2595;53.584;10.084;2022-08-26T03:42:12;12.20;;;7.60;;
5153;SDS011;2595;53.584;10.084;2022-08-26T03:44:38;13.37;;;6.53;;
5153;SDS011;2595;53.584;10.084;2022-08-26T03:47:05;9.10;;;7.60;;
5153;SDS011;2595;53.584;10.084;2022-08-26T03:49:31;6.87;;;6.37;;
5153;SDS011;2595;53.584;10.084;2022-08-26T03:51:58;8.73;;;7.90;;
5153;SDS011;2595;53.584;10.084;2022-08-26T03:54:24;7.83;;;7.03;;
5153;SDS011;2595;53.584;10.084;2022-08-26T03:56:50;7.73;;;6.93;;
5153;SDS011;2595;53.584;10.084;2022-08-26T03:59:15;8.30;;;7.20;;
5153;SDS011;2595;53.584;10.084;2022-08-26T04:01:41;12.60;;;8.20;;
5153;SDS011;2595;53.584;10.084;2022-08-26T04:04:06;7.63;;;7.13;;
5153;SDS011;2595;53.584;10.084;2022-08-26T04:06:40;9.87;;;8.53;;
5153;SDS011;2595;53.584;10.084;2022-08-26T04:09:08;8.70;;;7.67;;
5153;SDS011;2595;53.584;10.084;2022-08-26T04:11:35;8.63;;;8.07;;
5153;SDS011;2595;53.584;10.084;2022-08-26T04:14:04;8.00;;;7.33;;
5153;SDS011;2595;53.584;10.084;2022-08-26T04:16:33;9.60;;;7.73;;
5153;SDS011;2595;53.584;10.084;2022-08-26T04:18:59;20.63;;;7.70;;
5153;SDS011;2595;53.584;10.084;2022-08-26T04:21:25;10.17;;;7.70;;
5153;SDS011;2595;53.584;10.084;2022-08-26T04:23:51;9.57;;;8.43;;
5153;SDS011;2595;53.584;10.084;2022-08-26T04:26:18;9.27;;;6.60;;
5153;SDS011;2595;53.584;10.084;2022-08-26T04:28:45;9.27;;;8.50;;
5153;SDS011;2595;53.584;10.084;2022-08-26T04:31:12;7.87;;;7.27;;
5153;SDS011;2595;53.584;10.084;2022-08-26T04:33:40;8.50;;;7.57;;
5153;SDS011;2595;53.584;10.084;2022-08-26T04:36:07;8.10;;;7.60;;
5153;SDS011;2595;53.584;10.084;2022-08-26T04:38:33;10.60;;;7.10;;
5153;SDS011;2595;53.584;10.084;2022-08-26T04:40:59;7.87;;;7.37;;
5153;SDS011;2595;53.584;10.084;2022-08-26T04:43:25;8.40;;;7.60;;
5153;SDS011;2595;53.584;10.084;2022-08-26T04:45:54;9.70;;;6.93;;
5153;SDS011;2595;53.584;10.084;2022-08-26T04:48:30;10.10;;;7.77;;
5153;SDS011;2595;53.584;10.084;2022-08-26T04:50:57;8.77;;;7.87;;
5153;SDS011;2595;53.584;10.084;2022-08-26T04:53:23;8.73;;;7.80;;
5153;SDS011;2595;53.584;10.084;2022-08-26T04:55:50;10.80;;;7.70;;
5153;SDS011;2595;53.584;10.084;2022-08-26T04:58:16;9.10;;;8.20;;
5153;SDS011;2595;53.584;10.084;2022-08-26T05:00:44;11.83;;;8.97;;
5153;SDS011;2595;53.584;10.084;2022-08-26T05:03:11;8.33;;;7.67;;
5153;SDS011;2595;53.584;10.084;2022-08-26T05:05:38;8.37;;;7.67;;
5153;SDS011;2595;53.584;10.084;2022-08-26T05:08:08;11.80;;;8.57;;
5153;SDS011;2595;53.584;10.084;2022-08-26T05:10:42;8.70;;;8.07;;
5153;SDS011;2595;53.584;10.084;2022-08-26T05:13:10;8.33;;;7.20;;
5153;SDS011;2595;53.584;10.084;2022-08-26T05:15:37;11.10;;;9.67;;
5153;SDS011;2595;53.584;10.084;2022-08-26T05:18:03;10.60;;;9.67;;
5153;SDS011;2595;53.584;10.084;2022-08-26T05:20:29;9.47;;;8.57;;
5153;SDS011;2595;53.584;10.084;2022-08-26T05:22:57;9.03;;;8.20;;
5153;SDS011;2595;53.584;10.084;2022-08-26T05:25:25;7.87;;;7.27;;
5153;SDS011;2595;53.584;10.084;2022-08-26T05:27:51;8.97;;;8.20;;
5153;SDS011;2595;53.584;10.084;2022-08-26T05:30:17;8.57;;;7.97;;
5153;SDS011;2595;53.584;10.084;2022-08-26T05:32:42;10.90;;;9.50;;
5153;SDS011;2595;53.584;10.084;2022-08-26T05:35:08;14.90;;;8.43;;
5153;SDS011;2595;53.584;10.084;2022-08-26T05:37:35;17.97;;;8.83;;
5153;SDS011;2595;53.584;10.084;2022-08-26T05:40:03;13.00;;;8.30;;
5153;SDS011;2595;53.584;10.084;2022-08-26T05:42:29;16.00;;;8.10;;
5153;SDS011;2595;53.584;10.084;2022-08-26T05:44:54;10.83;;;9.67;;
5153;SDS011;2595;53.584;10.084;2022-08-26T05:47:20;9.93;;;8.77;;
5153;SDS011;2595;53.584;10.084;2022-08-26T05:49:46;10.53;;;8.30;;
5153;SDS011;2595;53.584;10.084;2022-08-26T05:52:12;8.67;;;7.97;;
5153;SDS011;2595;53.584;10.084;2022-08-26T05:54:38;9.43;;;8.47;;
5153;SDS011;2595;53.584;10.084;2022-08-26T05:57:03;8.97;;;8.23;;
5153;SDS011;2595;53.584;10.084;2022-08-26T05:59:29;8.70;;;7.97;;
5153;SDS011;2595;53.584;10.084;2022-08-26T06:01:55;18.27;;;9.50;;
5153;SDS011;2595;53.584;10.084;2022-08-26T06:04:21;9.17;;;8.27;;
5153;SDS011;2595;53.584;10.084;2022-08-26T06:06:49;9.83;;;8.13;;
5153;SDS011;2595;53.584;10.084;2022-08-26T06:09:14;8.93;;;8.13;;
5153;SDS011;2595;53.584;10.084;2022-08-26T06:11:40;12.77;;;9.47;;
5153;SDS011;2595;53.584;10.084;2022-08-26T06:14:06;9.70;;;8.17;;
5153;SDS011;2595;53.584;10.084;2022-08-26T06:16:33;9.57;;;8.10;;
5153;SDS011;2595;53.584;10.084;2022-08-26T06:19:02;9.67;;;8.30;;
5153;SDS011;2595;53.584;10.084;2022-08-26T06:21:31;8.77;;;7.97;;
5153;SDS011;2595;53.584;10.084;2022-08-26T06:23:59;8.50;;;7.90;;
5153;SDS011;2595;53.584;10.084;2022-08-26T06:26:47;10.83;;;9.70;;
5153;SDS011;2595;53.584;10.084;2022-08-26T06:29:20;9.57;;;8.77;;
5153;SDS011;2595;53.584;10.084;2022-08-26T06:31:47;9.93;;;8.93;;
5153;SDS011;2595;53.584;10.084;2022-08-26T06:34:13;15.60;;;9.20;;
5153;SDS011;2595;53.584;10.084;2022-08-26T06:36:39;10.43;;;9.53;;
5153;SDS011;2595;53.584;10.084;2022-08-26T06:39:08;19.00;;;9.90;;
5153;SDS011;2595;53.584;10.084;2022-08-26T06:41:36;11.47;;;10.47;;
5153;SDS011;2595;53.584;10.084;2022-08-26T06:44:04;9.90;;;8.90;;
5153;SDS011;2595;53.584;10.084;2022-08-26T06:46:31;9.27;;;8.07;;
5153;SDS011;2595;53.584;10.084;2022-08-26T06:48:57;10.83;;;9.77;;
5153;SDS011;2595;53.584;10.084;2022-08-26T06:51:27;12.53;;;9.33;;
5153;SDS011;2595;53.584;10.084;2022-08-26T06:53:55;12.07;;;10.40;;
5153;SDS011;2595;53.584;10.084;2022-08-26T06:56:24;15.37;;;9.83;;
5153;SDS011;2595;53.584;10.084;2022-08-26T06:58:52;15.13;;;10.70;;
5153;SDS011;2595;53.584;10.084;2022-08-26T07:01:40;14.20;;;11.00;;
5153;SDS011;2595;53.584;10.084;2022-08-26T07:04:08;10.37;;;9.67;;
5153;SDS011;2595;53.584;10.084;2022-08-26T07:06:36;11.43;;;10.33;;
5153;SDS011;2595;53.584;10.084;2022-08-26T07:09:05;11.03;;;9.93;;
5153;SDS011;2595;53.584;10.084;2022-08-26T07:11:32;11.40;;;10.30;;
5153;SDS011;2595;53.584;10.084;2022-08-26T07:13:58;13.80;;;10.93;;
5153;SDS011;2595;53.584;10.084;2022-08-26T07:16:25;11.23;;;10.13;;
5153;SDS011;2595;53.584;10.084;2022-08-26T07:18:51;14.07;;;12.70;;
5153;SDS011;2595;53.584;10.084;2022-08-26T07:21:18;14.43;;;10.07;;
5153;SDS011;2595;53.584;10.084;2022-08-26T07:23:45;14.23;;;9.33;;
5153;SDS011;2595;53.584;10.084;2022-08-26T07:26:14;11.27;;;10.27;;
5153;SDS011;2595;53.584;10.084;2022-08-26T07:28:45;19.27;;;11.13;;
5153;SDS011;2595;53.584;10.084;2022-08-26T07:31:13;11.57;;;10.43;;
5153;SDS011;2595;53.584;10.084;2022-08-26T07:33:40;10.20;;;9.27;;
5153;SDS011;2595;53.584;10.084;2022-08-26T07:36:06;16.30;;;10.73;;
5153;SDS011;2595;53.584;10.084;2022-08-26T07:38:33;9.77;;;9.07;;
5153;SDS011;2595;53.584;10.084;2022-08-26T07:41:00;11.30;;;9.73;;
5153;SDS011;2595;53.584;10.084;2022-08-26T07:43:26;15.27;;;11.00;;
5153;SDS011;2595;53.584;10.084;2022-08-26T07:45:52;12.60;;;10.50;;
5153;SDS011;2595;53.584;10.084;2022-08-26T07:48:18;11.60;;;10.40;;
5153;SDS011;2595;53.584;10.084;2022-08-26T07:50:44;10.77;;;9.83;;
5153;SDS011;2595;53.584;10.084;2022-08-26T07:53:11;13.53;;;8.80;;
5153;SDS011;2595;53.584;10.084;2022-08-26T07:55:37;12.70;;;10.40;;
5153;SDS011;2595;53.584;10.084;2022-08-26T07:58:03;10.47;;;9.33;;
5153;SDS011;2595;53.584;10.084;2022-08-26T08:00:29;9.70;;;8.70;;
5153;SDS011;2595;53.584;10.084;2022-08-26T08:02:57;10.07;;;9.17;;
5153;SDS011;2595;53.584;10.084;2022-08-26T08:05:23;9.37;;;8.43;;
5153;SDS011;2595;53.584;10.084;2022-08-26T08:07:49;9.30;;;8.40;;
5153;SDS011;2595;53.584;10.084;2022-08-26T08:10:19;15.63;;;8.50;;
5153;SDS011;2595;53.584;10.084;2022-08-26T08:12:47;10.30;;;8.03;;
5153;SDS011;2595;53.584;10.084;2022-08-26T08:15:13;8.97;;;8.27;;
5153;SDS011;2595;53.584;10.084;2022-08-26T08:17:39;9.37;;;8.57;;
5153;SDS011;2595;53.584;10.084;2022-08-26T08:20:07;8.30;;;7.60;;
5153;SDS011;2595;53.584;10.084;2022-08-26T08:22:34;9.07;;;8.50;;
5153;SDS011;2595;53.584;10.084;2022-08-26T08:25:00;10.30;;;9.30;;
5153;SDS011;2595;53.584;10.084;2022-08-26T08:27:25;8.90;;;8.20;;
5153;SDS011;2595;53.584;10.084;2022-08-26T08:29:52;8.80;;;8.20;;
5153;SDS011;2595;53.584;10.084;2022-08-26T08:32:21;9.13;;;8.43;;
5153;SDS011;2595;53.584;10.084;2022-08-26T08:34:47;10.17;;;8.87;;
5153;SDS011;2595;53.584;10.084;2022-08-26T08:37:14;11.17;;;10.00;;
5153;SDS011;2595;53.584;10.084;2022-08-26T08:39:39;14.63;;;9.47;;
5153;SDS011;2595;53.584;10.084;2022-08-26T08:44:50;12.73;;;10.20;;
5153;SDS011;2595;53.584;10.084;2022-08-26T08:52:57;9.90;;;9.10;;
5153;SDS011;2595;53.584;10.084;2022-08-26T08:55:54;9.87;;;9.27;;
5153;SDS011;2595;53.584;10.084;2022-08-26T08:58:39;9.47;;;8.57;;
5153;SDS011;2595;53.584;10.084;2022-08-26T09:01:36;9.77;;;9.00;;
5153;SDS011;2595;53.584;10.084;2022-08-26T09:06:57;10.17;;;9.23;;
5153;SDS011;2595;53.584;10.084;2022-08-26T09:09:38;12.97;;;10.00;;
5153;SDS011;2595;53.584;10.084;2022-08-26T09:12:14;9.70;;;8.90;;
5153;SDS011;2595;53.584;10.084;2022-08-26T09:14:44;10.60;;;9.60;;
5153;SDS011;2595;53.584;10.084;2022-08-26T09:17:30;10.20;;;9.40;;
5153;SDS011;2595;53.584;10.084;2022-08-26T09:20:47;11.33;;;9.73;;
5153;SDS011;2595;53.584;10.084;2022-08-26T09:22:53;9.90;;;9.00;;
5153;SDS011;2595;53.584;10.084;2022-08-26T09:25:21;10.80;;;9.97;;
5153;SDS011;2595;53.584;10.084;2022-08-26T09:27:48;11.53;;;10.53;;
5153;SDS011;2595;53.584;10.084;2022-08-26T09:30:25;8.87;;;8.17;;
5153;SDS011;2595;53.584;10.084;2022-08-26T09:32:59;9.30;;;8.70;;
5153;SDS011;2595;53.584;10.084;2022-08-26T09:35:35;10.63;;;9.10;;
5153;SDS011;2595;53.584;10.084;2022-08-26T09:41:01;12.70;;;8.57;;
5153;SDS011;2595;53.584;10.084;2022-08-26T09:43:29;10.67;;;9.70;;
5153;SDS011;2595;53.584;10.084;2022-08-26T09:46:17;10.37;;;9.37;;
5153;SDS011;2595;53.584;10.084;2022-08-26T09:48:49;9.47;;;8.67;;
5153;SDS011;2595;53.584;10.084;2022-08-26T09:51:26;11.90;;;9.33;;
5153;SDS011;2595;53.584;10.084;2022-08-26T09:53:55;12.17;;;8.80;;
5153;SDS011;2595;53.584;10.084;2022-08-26T09:56:27;13.23;;;9.10;;
5153;SDS011;2595;53.584;10.084;2022-08-26T09:58:58;11.20;;;10.30;;
5153;SDS011;2595;53.584;10.084;2022-08-26T10:04:07;10.27;;;9.27;;
5153;SDS011;2595;53.584;10.084;2022-08-26T10:06:58;13.63;;;9.73;;
5153;SDS011;2595;53.584;10.084;2022-08-26T10:09:25;12.80;;;9.70;;
5153;SDS011;2595;53.584;10.084;2022-08-26T10:11:54;10.40;;;9.40;;
5153;SDS011;2595;53.584;10.084;2022-08-26T10:14:39;11.40;;;10.20;;
5153;SDS011;2595;53.584;10.084;2022-08-26T10:17:15;17.90;;;9.50;;
5153;SDS011;2595;53.584;10.084;2022-08-26T10:19:50;10.70;;;9.67;;
5153;SDS011;2595;53.584;10.084;2022-08-26T10:25:12;11.90;;;10.70;;
5153;SDS011;2595;53.584;10.084;2022-08-26T10:27:42;10.33;;;9.43;;
5153;SDS011;2595;53.584;10.084;2022-08-26T10:30:14;20.30;;;8.87;;
5153;SDS011;2595;53.584;10.084;2022-08-26T10:32:48;10.97;;;9.50;;
5153;SDS011;2595;53.584;10.084;2022-08-26T10:35:18;10.80;;;9.83;;
5153;SDS011;2595;53.584;10.084;2022-08-26T10:37:45;11.67;;;9.33;;
5153;SDS011;2595;53.584;10.084;2022-08-26T10:45:20;18.10;;;9.63;;
5153;SDS011;2595;53.584;10.084;2022-08-26T10:47:59;10.37;;;9.37;;
5153;SDS011;2595;53.584;10.084;2022-08-26T10:50:35;13.60;;;9.07;;
5153;SDS011;2595;53.584;10.084;2022-08-26T11:01:12;15.10;;;8.63;;
5153;SDS011;2595;53.584;10.084;2022-08-26T11:09:55;18.47;;;9.63;;
5153;SDS011;2595;53.584;10.084;2022-08-26T11:15:01;11.63;;;9.33;;
5153;SDS011;2595;53.584;10.084;2022-08-26T11:22:48;13.83;;;10.33;;
5153;SDS011;2595;53.584;10.084;2022-08-26T11:25:15;10.07;;;9.27;;
5153;SDS011;2595;53.584;10.084;2022-08-26T11:35:07;11.27;;;9.93;;
5153;SDS011;2595;53.584;10.084;2022-08-26T11:37:39;10.07;;;8.50;;
5153;SDS011;2595;53.584;10.084;2022-08-26T11:40:31;10.10;;;9.30;;
5153;SDS011;2595;53.584;10.084;2022-08-26T11:43:10;10.70;;;7.87;;
5153;SDS011;2595;53.584;10.084;2022-08-26T11:45:46;9.43;;;8.53;;
5153;SDS011;2595;53.584;10.084;2022-08-26T11:53:23;9.33;;;8.30;;
5153;SDS011;2595;53.584;10.084;2022-08-26T11:55:50;17.40;;;8.73;;
5153;SDS011;2595;53.584;10.084;2022-08-26T11:58:18;11.00;;;8.00;;
5153;SDS011;2595;53.584;10.084;2022-08-26T12:03:31;14.13;;;8.87;;
5153;SDS011;2595;53.584;10.084;2022-08-26T12:08:53;18.13;;;7.83;;
5153;SDS011;2595;53.584;10.084;2022-08-26T12:11:23;12.97;;;8.93;;
5153;SDS011;2595;53.584;10.084;2022-08-26T12:13:55;13.03;;;8.20;;
5153;SDS011;2595;53.584;10.084;2022-08-26T12:16:23;11.33;;;8.63;;
5153;SDS011;2595;53.584;10.084;2022-08-26T12:18:50;9.57;;;7.97;;
5153;SDS011;2595;53.584;10.084;2022-08-26T12:21:20;8.67;;;7.97;;
5153;SDS011;2595;53.584;10.084;2022-08-26T12:23:51;17.30;;;7.90;;
5153;SDS011;2595;53.584;10.084;2022-08-26T12:29:02;8.57;;;7.67;;
5153;SDS011;2595;53.584;10.084;2022-08-26T12:31:37;15.93;;;7.57;;
5153;SDS011;2595;53.584;10.084;2022-08-26T12:34:06;11.77;;;8.20;;
5153;SDS011;2595;53.584;10.084;2022-08-26T12:36:35;10.93;;;8.03;;
5153;SDS011;2595;53.584;10.084;2022-08-26T12:39:11;9.20;;;7.77;;
5153;SDS011;2595;53.584;10.084;2022-08-26T12:49:48;9.50;;;8.43;;
5153;SDS011;2595;53.584;10.084;2022-08-26T12:52:27;15.47;;;7.40;;
5153;SDS011;2595;53.584;10.084;2022-08-26T13:00:39;14.67;;;8.23;;
5153;SDS011;2595;53.584;10.084;2022-08-26T13:08:46;12.20;;;7.80;;
5153;SDS011;2595;53.584;10.084;2022-08-26T13:11:18;13.10;;;8.40;;
5153;SDS011;2595;53.584;10.084;2022-08-26T13:13:59;11.13;;;8.37;;
5153;SDS011;2595;53.584;10.084;2022-08-26T13:16:29;13.30;;;8.10;;
5153;SDS011;2595;53.584;10.084;2022-08-26T13:18:56;10.03;;;8.50;;
5153;SDS011;2595;53.584;10.084;2022-08-26T13:21:38;12.17;;;8.30;;
5153;SDS011;2595;53.584;10.084;2022-08-26T13:24:08;9.43;;;8.10;;
5153;SDS011;2595;53.584;10.084;2022-08-26T13:26:37;12.50;;;9.87;;
5153;SDS011;2595;53.584;10.084;2022-08-26T13:29:03;10.07;;;9.17;;
5153;SDS011;2595;53.584;10.084;2022-08-26T13:31:30;12.00;;;9.90;;
5153;SDS011;2595;53.584;10.084;2022-08-26T13:33:58;10.17;;;9.00;;
5153;SDS011;2595;53.584;10.084;2022-08-26T13:36:24;9.87;;;8.90;;
5153;SDS011;2595;53.584;10.084;2022-08-26T13:38:50;18.40;;;9.50;;
5153;SDS011;2595;53.584;10.084;2022-08-26T13:41:16;14.27;;;9.73;;
5153;SDS011;2595;53.584;10.084;2022-08-26T13:43:42;9.77;;;9.00;;
5153;SDS011;2595;53.584;10.084;2022-08-26T13:46:07;9.03;;;8.17;;
5153;SDS011;2595;53.584;10.084;2022-08-26T13:48:33;9.70;;;8.50;;
5153;SDS011;2595;53.584;10.084;2022-08-26T13:50:59;7.00;;;6.60;;
5153;SDS011;2595;53.584;10.084;2022-08-26T13:53:26;9.93;;;5.93;;
5153;SDS011;2595;53.584;10.084;2022-08-26T13:55:54;5.47;;;5.17;;
5153;SDS011;2595;53.584;10.084;2022-08-26T13:58:20;7.50;;;5.80;;
5153;SDS011;2595;53.584;10.084;2022-08-26T14:00:45;6.63;;;6.13;;
5153;SDS011;2595;53.584;10.084;2022-08-26T14:03:11;7.40;;;6.80;;
5153;SDS011;2595;53.584;10.084;2022-08-26T14:05:37;7.33;;;6.80;;
5153;SDS011;2595;53.584;10.084;2022-08-26T14:08:03;7.73;;;7.23;;
5153;SDS011;2595;53.584;10.084;2022-08-26T14:10:29;7.67;;;7.07;;
5153;SDS011;2595;53.584;10.084;2022-08-26T14:12:54;7.27;;;6.77;;
5153;SDS011;2595;53.584;10.084;2022-08-26T14:15:20;9.50;;;7.83;;
5153;SDS011;2595;53.584;10.084;2022-08-26T14:17:46;8.60;;;7.90;;
5153;SDS011;2595;53.584;10.084;2022-08-26T14:20:15;9.33;;;8.63;;
5153;SDS011;2595;53.584;10.084;2022-08-26T14:22:44;8.57;;;7.77;;
5153;SDS011;2595;53.584;10.084;2022-08-26T14:25:11;8.60;;;8.00;;
5153;SDS011;2595;53.584;10.084;2022-08-26T14:27:37;10.97;;;9.63;;
5153;SDS011;2595;53.584;10.084;2022-08-26T14:30:04;9.33;;;8.30;;
5153;SDS011;2595;53.584;10.084;2022-08-26T14:32:31;15.63;;;9.73;;
5153;SDS011;2595;53.584;10.084;2022-08-26T14:34:57;10.53;;;9.17;;
5153;SDS011;2595;53.584;10.084;2022-08-26T14:37:22;12.70;;;9.67;;
5153;SDS011;2595;53.584;10.084;2022-08-26T14:39:48;11.70;;;8.53;;
5153;SDS011;2595;53.584;10.084;2022-08-26T14:42:16;10.13;;;8.90;;
5153;SDS011;2595;53.584;10.084;2022-08-26T14:44:55;12.80;;;8.93;;
5153;SDS011;2595;53.584;10.084;2022-08-26T14:47:22;10.20;;;8.70;;
5153;SDS011;2595;53.584;10.084;2022-08-26T14:49:48;12.73;;;9.67;;
5153;SDS011;2595;53.584;10.084;2022-08-26T14:52:14;18.27;;;10.20;;
5153;SDS011;2595;53.584;10.084;2022-08-26T14:54:39;16.47;;;9.27;;
5153;SDS011;2595;53.584;10.084;2022-08-26T14:57:06;10.07;;;9.23;;
5153;SDS011;2595;53.584;10.084;2022-08-26T14:59:38;10.63;;;9.23;;
5153;SDS011;2595;53.584;10.084;2022-08-26T15:02:06;9.80;;;8.90;;
5153;SDS011;2595;53.584;10.084;2022-08-26T15:04:34;8.40;;;7.60;;
5153;SDS011;2595;53.584;10.084;2022-08-26T15:07:00;7.83;;;6.93;;
5153;SDS011;2595;53.584;10.084;2022-08-26T15:09:26;8.00;;;7.33;;
5153;SDS011;2595;53.584;10.084;2022-08-26T15:11:53;10.57;;;7.10;;
5153;SDS011;2595;53.584;10.084;2022-08-26T15:14:19;9.77;;;8.37;;
5153;SDS011;2595;53.584;10.084;2022-08-26T15:16:49;7.73;;;7.23;;
5153;SDS011;2595;53.584;10.084;2022-08-26T15:19:17;8.93;;;7.90;;
5153;SDS011;2595;53.584;10.084;2022-08-26T15:21:44;6.97;;;6.47;;
5153;SDS011;2595;53.584;10.084;2022-08-26T15:24:11;8.53;;;7.93;;
5153;SDS011;2595;53.584;10.084;2022-08-26T15:26:37;7.47;;;6.87;;
5153;SDS011;2595;53.584;10.084;2022-08-26T15:29:03;6.90;;;6.30;;
5153;SDS011;2595;53.584;10.084;2022-08-26T15:31:30;6.70;;;6.20;;
5153;SDS011;2595;53.584;10.084;2022-08-26T15:33:57;6.43;;;5.93;;
5153;SDS011;2595;53.584;10.084;2022-08-26T15:36:33;7.30;;;6.83;;
5153;SDS011;2595;53.584;10.084;2022-08-26T15:39:02;7.27;;;6.53;;
5153;SDS011;2595;53.584;10.084;2022-08-26T15:41:30;7.60;;;7.00;;
5153;SDS011;2595;53.584;10.084;2022-08-26T15:43:56;7.27;;;6.80;;
5153;SDS011;2595;53.584;10.084;2022-08-26T15:46:23;7.03;;;6.43;;
5153;SDS011;2595;53.584;10.084;2022-08-26T15:48:49;7.97;;;6.67;;
5153;SDS011;2595;53.584;10.084;2022-08-26T15:51:20;6.83;;;6.23;;
5153;SDS011;2595;53.584;10.084;2022-08-26T15:53:51;6.20;;;5.80;;
5153;SDS011;2595;53.584;10.084;2022-08-26T15:56:20;6.37;;;5.97;;
5153;SDS011;2595;53.584;10.084;2022-08-26T15:58:49;6.90;;;6.60;;
5153;SDS011;2595;53.584;10.084;2022-08-26T16:01:15;6.43;;;5.67;;
5153;SDS011;2595;53.584;10.084;2022-08-26T16:03:41;6.67;;;5.90;;
5153;SDS011;2595;53.584;10.084;2022-08-26T16:06:07;6.90;;;5.43;;
5153;SDS011;2595;53.584;10.084;2022-08-26T16:08:36;5.93;;;5.63;;
5153;SDS011;2595;53.584;10.084;2022-08-26T16:11:02;5.90;;;5.37;;
5153;SDS011;2595;53.584;10.084;2022-08-26T16:13:28;4.93;;;4.73;;
5153;SDS011;2595;53.584;10.084;2022-08-26T16:15:54;5.13;;;4.83;;
5153;SDS011;2595;53.584;10.084;2022-08-26T16:18:19;5.10;;;4.80;;
5153;SDS011;2595;53.584;10.084;2022-08-26T16:20:50;5.10;;;4.80;;
5153;SDS011;2595;53.584;10.084;2022-08-26T16:23:16;3.87;;;3.67;;
5153;SDS011;2595;53.584;10.084;2022-08-26T16:25:43;3.70;;;3.40;;
5153;SDS011;2595;53.584;10.084;2022-08-26T16:28:09;2.93;;;2.73;;
5153;SDS011;2595;53.584;10.084;2022-08-26T16:30:34;3.10;;;2.90;;
5153;SDS011;2595;53.584;10.084;2022-08-26T16:33:00;2.90;;;2.70;;
5153;SDS011;2595;53.584;10.084;2022-08-26T16:35:26;3.20;;;2.90;;
5153;SDS011;2595;53.584;10.084;2022-08-26T16:37:51;3.90;;;3.60;;